sensor_id;sensor_type;location;lat;lon;timestamp;temperature;humidity
55026;DHT22;40925;45.666;18.994;2024-01-30T00:01:09;0.70;2201.60
55026;DHT22;40925;45.666;18.994;2024-01-30T00:03:35;0.50;2201.60
55026;DHT22;40925;45.666;18.994;2024-01-30T00:06:03;0.50;2201.60
55026;DHT22;40925;45.666;18.994;2024-01-30T00:08:29;0.50;2201.60
55026;DHT22;40925;45.666;18.994;2024-01-30T00:10:55;0.50;2201.60
55026;DHT22;40925;45.666;18.994;2024-01-30T00:16:43;0.50;2201.60
55026;DHT22;40925;45.666;18.994;2024-01-30T00:19:09;0.50;2201.60
55026;DHT22;40925;45.666;18.994;2024-01-30T00:21:38;0.40;2201.60
55026;DHT22;40925;45.666;18.994;2024-01-30T00:24:04;0.30;2201.60
55026;DHT22;40925;45.666;18.994;2024-01-30T00:26:30;0.30;2201.60
55026;DHT22;40925;45.666;18.994;2024-01-30T00:28:56;0.20;2201.60
55026;DHT22;40925;45.666;18.994;2024-01-30T00:31:22;0.20;2201.60
55026;DHT22;40925;45.666;18.994;2024-01-30T00:33:48;0.20;2201.60
55026;DHT22;40925;45.666;18.994;2024-01-30T00:36:14;0.20;2201.60
55026;DHT22;40925;45.666;18.994;2024-01-30T00:38:41;0.30;2201.60
55026;DHT22;40925;45.666;18.994;2024-01-30T00:41:08;0.20;2201.60
55026;DHT22;40925;45.666;18.994;2024-01-30T00:46:56;0.00;1945.60
55026;DHT22;40925;45.666;18.994;2024-01-30T00:49:22;0.00;2201.60
55026;DHT22;40925;45.666;18.994;2024-01-30T00:51:48;0.00;2201.60
55026;DHT22;40925;45.666;18.994;2024-01-30T00:54:14;0.00;2150.40
55026;DHT22;40925;45.666;18.994;2024-01-30T00:56:40;0.00;2201.60
55026;DHT22;40925;45.666;18.994;2024-01-30T01:02:45;0.00;2201.60
55026;DHT22;40925;45.666;18.994;2024-01-30T01:05:11;12.90;2201.60
55026;DHT22;40925;45.666;18.994;2024-01-30T01:07:37;13.00;2201.60
55026;DHT22;40925;45.666;18.994;2024-01-30T01:10:03;13.00;2201.60
55026;DHT22;40925;45.666;18.994;2024-01-30T01:12:29;13.00;2201.60
55026;DHT22;40925;45.666;18.994;2024-01-30T01:14:55;13.00;2201.60
55026;DHT22;40925;45.666;18.994;2024-01-30T01:17:21;13.10;2201.60
55026;DHT22;40925;45.666;18.994;2024-01-30T01:19:47;13.10;2201.60
55026;DHT22;40925;45.666;18.994;2024-01-30T01:22:13;13.20;2201.60
55026;DHT22;40925;45.666;18.994;2024-01-30T01:24:39;13.20;2201.60
55026;DHT22;40925;45.666;18.994;2024-01-30T01:27:05;13.20;2201.60
55026;DHT22;40925;45.666;18.994;2024-01-30T01:32:55;13.20;2201.60
55026;DHT22;40925;45.666;18.994;2024-01-30T01:35:25;13.20;2201.60
55026;DHT22;40925;45.666;18.994;2024-01-30T01:37:52;13.30;2201.60
55026;DHT22;40925;45.666;18.994;2024-01-30T01:40:26;13.20;2201.60
55026;DHT22;40925;45.666;18.994;2024-01-30T01:42:53;13.30;2201.60
55026;DHT22;40925;45.666;18.994;2024-01-30T01:45:20;13.30;2201.60
55026;DHT22;40925;45.666;18.994;2024-01-30T01:47:49;13.30;2176.00
55026;DHT22;40925;45.666;18.994;2024-01-30T01:50:16;13.30;1843.20
55026;DHT22;40925;45.666;18.994;2024-01-30T01:52:46;13.30;2201.60
55026;DHT22;40925;45.666;18.994;2024-01-30T01:55:13;13.40;2201.60
55026;DHT22;40925;45.666;18.994;2024-01-30T01:57:41;13.40;2201.60
55026;DHT22;40925;45.666;18.994;2024-01-30T02:03:29;13.40;1894.40
55026;DHT22;40925;45.666;18.994;2024-01-30T02:05:56;13.50;2201.60
55026;DHT22;40925;45.666;18.994;2024-01-30T02:08:26;13.50;2201.60
55026;DHT22;40925;45.666;18.994;2024-01-30T02:10:52;13.50;2201.60
55026;DHT22;40925;45.666;18.994;2024-01-30T02:13:18;13.60;2201.60
55026;DHT22;40925;45.666;18.994;2024-01-30T02:15:44;13.60;2201.60
55026;DHT22;40925;45.666;18.994;2024-01-30T02:18:14;13.60;2201.60
55026;DHT22;40925;45.666;18.994;2024-01-30T02:20:41;13.60;2201.60
55026;DHT22;40925;45.666;18.994;2024-01-30T02:23:09;13.60;2201.60
55026;DHT22;40925;45.666;18.994;2024-01-30T02:25:39;13.60;2201.60
55026;DHT22;40925;45.666;18.994;2024-01-30T02:28:11;13.60;2201.60
55026;DHT22;40925;45.666;18.994;2024-01-30T02:33:59;13.70;2201.60
55026;DHT22;40925;45.666;18.994;2024-01-30T02:36:25;13.70;2201.60
55026;DHT22;40925;45.666;18.994;2024-01-30T02:38:51;13.70;2201.60
55026;DHT22;40925;45.666;18.994;2024-01-30T02:41:17;13.70;2201.60
55026;DHT22;40925;45.666;18.994;2024-01-30T02:43:46;13.70;2201.60
55026;DHT22;40925;45.666;18.994;2024-01-30T02:46:12;13.70;2201.60
55026;DHT22;40925;45.666;18.994;2024-01-30T02:48:38;13.70;2201.60
55026;DHT22;40925;45.666;18.994;2024-01-30T02:51:04;13.70;2201.60
55026;DHT22;40925;45.666;18.994;2024-01-30T02:53:31;13.70;2201.60
55026;DHT22;40925;45.666;18.994;2024-01-30T02:55:57;13.70;2201.60
55026;DHT22;40925;45.666;18.994;2024-01-30T02:58:23;38.40;2201.60
55026;DHT22;40925;45.666;18.994;2024-01-30T03:04:11;38.40;2201.60
55026;DHT22;40925;45.666;18.994;2024-01-30T03:06:37;38.40;2201.60
55026;DHT22;40925;45.666;18.994;2024-01-30T03:09:03;38.50;2201.60
55026;DHT22;40925;45.666;18.994;2024-01-30T03:11:33;38.40;2201.60
55026;DHT22;40925;45.666;18.994;2024-01-30T03:13:59;38.40;2201.60
55026;DHT22;40925;45.666;18.994;2024-01-30T03:16:25;38.40;2201.60
55026;DHT22;40925;45.666;18.994;2024-01-30T03:18:51;38.40;2201.60
55026;DHT22;40925;45.666;18.994;2024-01-30T03:21:17;38.40;2201.60
55026;DHT22;40925;45.666;18.994;2024-01-30T03:23:43;38.40;2201.60
55026;DHT22;40925;45.666;18.994;2024-01-30T03:26:09;13.70;2201.60
55026;DHT22;40925;45.666;18.994;2024-01-30T03:28:36;13.70;2201.60
55026;DHT22;40925;45.666;18.994;2024-01-30T03:34:24;13.70;2201.60
55026;DHT22;40925;45.666;18.994;2024-01-30T03:36:50;13.70;2201.60
55026;DHT22;40925;45.666;18.994;2024-01-30T03:39:15;13.70;2201.60
55026;DHT22;40925;45.666;18.994;2024-01-30T03:41:44;13.70;2201.60
55026;DHT22;40925;45.666;18.994;2024-01-30T03:44:11;13.70;2201.60
55026;DHT22;40925;45.666;18.994;2024-01-30T03:50:11;13.70;2201.60
55026;DHT22;40925;45.666;18.994;2024-01-30T03:52:38;13.70;2201.60
55026;DHT22;40925;45.666;18.994;2024-01-30T03:55:05;13.70;2201.60
55026;DHT22;40925;45.666;18.994;2024-01-30T03:57:31;38.40;2201.60
55026;DHT22;40925;45.666;18.994;2024-01-30T04:00:00;38.40;2201.60
55026;DHT22;40925;45.666;18.994;2024-01-30T04:02:26;38.40;2201.60
55026;DHT22;40925;45.666;18.994;2024-01-30T04:04:52;38.40;2201.60
55026;DHT22;40925;45.666;18.994;2024-01-30T04:07:18;38.40;2201.60
55026;DHT22;40925;45.666;18.994;2024-01-30T04:09:44;38.40;2201.60
55026;DHT22;40925;45.666;18.994;2024-01-30T04:12:10;38.40;2201.60
55026;DHT22;40925;45.666;18.994;2024-01-30T04:14:39;38.40;2201.60
55026;DHT22;40925;45.666;18.994;2024-01-30T04:20:26;38.40;2201.60
55026;DHT22;40925;45.666;18.994;2024-01-30T04:22:52;38.40;2201.60
55026;DHT22;40925;45.666;18.994;2024-01-30T04:25:19;38.40;2201.60
55026;DHT22;40925;45.666;18.994;2024-01-30T04:27:45;38.40;2201.60
55026;DHT22;40925;45.666;18.994;2024-01-30T04:30:14;38.50;2201.60
55026;DHT22;40925;45.666;18.994;2024-01-30T04:32:40;38.40;2201.60
55026;DHT22;40925;45.666;18.994;2024-01-30T04:35:06;38.40;2201.60
55026;DHT22;40925;45.666;18.994;2024-01-30T04:37:32;38.40;2201.60
55026;DHT22;40925;45.666;18.994;2024-01-30T04:39:59;38.40;2201.60
55026;DHT22;40925;45.666;18.994;2024-01-30T04:42:25;38.50;2201.60
55026;DHT22;40925;45.666;18.994;2024-01-30T04:44:54;38.50;2201.60
55026;DHT22;40925;45.666;18.994;2024-01-30T04:50:41;38.50;2201.60
55026;DHT22;40925;45.666;18.994;2024-01-30T04:53:10;38.50;2201.60
55026;DHT22;40925;45.666;18.994;2024-01-30T04:55:36;38.50;2201.60
55026;DHT22;40925;45.666;18.994;2024-01-30T04:58:02;38.50;2201.60
55026;DHT22;40925;45.666;18.994;2024-01-30T05:00:28;38.50;2201.60
55026;DHT22;40925;45.666;18.994;2024-01-30T05:06:26;38.50;2201.60
55026;DHT22;40925;45.666;18.994;2024-01-30T05:08:52;38.60;2201.60
55026;DHT22;40925;45.666;18.994;2024-01-30T05:11:18;38.60;2201.60
55026;DHT22;40925;45.666;18.994;2024-01-30T05:13:45;38.60;2201.60
55026;DHT22;40925;45.666;18.994;2024-01-30T05:16:11;38.60;2201.60
55026;DHT22;40925;45.666;18.994;2024-01-30T05:18:37;38.70;2201.60
55026;DHT22;40925;45.666;18.994;2024-01-30T05:21:05;38.70;2201.60
55026;DHT22;40925;45.666;18.994;2024-01-30T05:23:31;38.80;2201.60
55026;DHT22;40925;45.666;18.994;2024-01-30T05:26:00;38.80;2201.60
55026;DHT22;40925;45.666;18.994;2024-01-30T05:28:26;38.80;2201.60
55026;DHT22;40925;45.666;18.994;2024-01-30T05:30:52;38.80;2201.60
55026;DHT22;40925;45.666;18.994;2024-01-30T05:36:40;38.80;2201.60
55026;DHT22;40925;45.666;18.994;2024-01-30T05:39:06;38.90;2201.60
55026;DHT22;40925;45.666;18.994;2024-01-30T05:41:33;38.90;2201.60
55026;DHT22;40925;45.666;18.994;2024-01-30T05:43:59;38.90;2201.60
55026;DHT22;40925;45.666;18.994;2024-01-30T05:46:25;38.90;2201.60
55026;DHT22;40925;45.666;18.994;2024-01-30T05:48:51;38.90;2201.60
55026;DHT22;40925;45.666;18.994;2024-01-30T05:51:17;38.90;2201.60
55026;DHT22;40925;45.666;18.994;2024-01-30T05:53:43;39.00;2201.60
55026;DHT22;40925;45.666;18.994;2024-01-30T05:56:09;38.90;2201.60
55026;DHT22;40925;45.666;18.994;2024-01-30T05:58:35;38.90;2201.60
55026;DHT22;40925;45.666;18.994;2024-01-30T06:01:08;38.90;2201.60
55026;DHT22;40925;45.666;18.994;2024-01-30T06:06:56;38.90;2201.60
55026;DHT22;40925;45.666;18.994;2024-01-30T06:09:22;39.00;2201.60
55026;DHT22;40925;45.666;18.994;2024-01-30T06:11:48;39.00;2201.60
55026;DHT22;40925;45.666;18.994;2024-01-30T06:14:15;39.00;2201.60
55026;DHT22;40925;45.666;18.994;2024-01-30T06:16:41;39.00;2201.60
55026;DHT22;40925;45.666;18.994;2024-01-30T06:19:06;38.90;2201.60
55026;DHT22;40925;45.666;18.994;2024-01-30T06:21:33;38.80;2201.60
55026;DHT22;40925;45.666;18.994;2024-01-30T06:24:02;38.80;2201.60
55026;DHT22;40925;45.666;18.994;2024-01-30T06:26:28;38.80;2201.60
55026;DHT22;40925;45.666;18.994;2024-01-30T06:28:54;38.80;2201.60
55026;DHT22;40925;45.666;18.994;2024-01-30T06:31:21;38.70;2201.60
55026;DHT22;40925;45.666;18.994;2024-01-30T06:37:08;38.70;2201.60
55026;DHT22;40925;45.666;18.994;2024-01-30T06:39:34;38.70;2201.60
55026;DHT22;40925;45.666;18.994;2024-01-30T06:42:00;38.70;2201.60
55026;DHT22;40925;45.666;18.994;2024-01-30T06:44:27;38.80;2201.60
55026;DHT22;40925;45.666;18.994;2024-01-30T06:46:53;38.70;2201.60
55026;DHT22;40925;45.666;18.994;2024-01-30T06:52:56;38.70;2201.60
55026;DHT22;40925;45.666;18.994;2024-01-30T06:55:22;38.70;2201.60
55026;DHT22;40925;45.666;18.994;2024-01-30T06:57:48;38.70;2201.60
55026;DHT22;40925;45.666;18.994;2024-01-30T07:00:17;38.70;2201.60
55026;DHT22;40925;45.666;18.994;2024-01-30T07:02:45;38.60;2201.60
55026;DHT22;40925;45.666;18.994;2024-01-30T07:05:11;38.70;2201.60
55026;DHT22;40925;45.666;18.994;2024-01-30T07:07:37;38.60;2201.60
55026;DHT22;40925;45.666;18.994;2024-01-30T07:10:03;38.60;2201.60
55026;DHT22;40925;45.666;18.994;2024-01-30T07:12:30;38.70;2201.60
55026;DHT22;40925;45.666;18.994;2024-01-30T07:14:57;38.80;2201.60
55026;DHT22;40925;45.666;18.994;2024-01-30T07:17:25;38.80;2201.60
55026;DHT22;40925;45.666;18.994;2024-01-30T07:23:15;38.50;2201.60
55026;DHT22;40925;45.666;18.994;2024-01-30T07:25:45;38.50;2201.60
55026;DHT22;40925;45.666;18.994;2024-01-30T07:28:14;38.70;2201.60
55026;DHT22;40925;45.666;18.994;2024-01-30T07:30:43;38.80;2201.60
55026;DHT22;40925;45.666;18.994;2024-01-30T07:33:09;38.90;2201.60
55026;DHT22;40925;45.666;18.994;2024-01-30T07:35:36;38.80;2201.60
55026;DHT22;40925;45.666;18.994;2024-01-30T07:38:02;38.60;2201.60
55026;DHT22;40925;45.666;18.994;2024-01-30T07:40:28;38.40;2201.60
55026;DHT22;40925;45.666;18.994;2024-01-30T07:42:54;13.70;2201.60
55026;DHT22;40925;45.666;18.994;2024-01-30T07:45:20;13.70;2201.60
55026;DHT22;40925;45.666;18.994;2024-01-30T07:47:51;13.70;2201.60
55026;DHT22;40925;45.666;18.994;2024-01-30T07:53:42;13.60;2201.60
55026;DHT22;40925;45.666;18.994;2024-01-30T07:56:08;13.60;2201.60
55026;DHT22;40925;45.666;18.994;2024-01-30T07:58:35;13.60;2201.60
55026;DHT22;40925;45.666;18.994;2024-01-30T08:01:01;13.50;2201.60
55026;DHT22;40925;45.666;18.994;2024-01-30T08:03:27;13.30;2201.60
55026;DHT22;40925;45.666;18.994;2024-01-30T08:09:15;13.00;2201.60
55026;DHT22;40925;45.666;18.994;2024-01-30T08:11:41;13.00;2201.60
55026;DHT22;40925;45.666;18.994;2024-01-30T08:14:07;13.00;2201.60
55026;DHT22;40925;45.666;18.994;2024-01-30T08:16:33;13.00;2201.60
55026;DHT22;40925;45.666;18.994;2024-01-30T08:19:03;13.00;2201.60
55026;DHT22;40925;45.666;18.994;2024-01-30T08:21:29;0.20;2201.60
55026;DHT22;40925;45.666;18.994;2024-01-30T08:23:55;0.30;2201.60
55026;DHT22;40925;45.666;18.994;2024-01-30T08:26:21;0.40;2201.60
55026;DHT22;40925;45.666;18.994;2024-01-30T08:28:47;0.80;2201.60
55026;DHT22;40925;45.666;18.994;2024-01-30T08:31:13;25.60;2201.60
55026;DHT22;40925;45.666;18.994;2024-01-30T08:39:09;51.20;2227.20
55026;DHT22;40925;45.666;18.994;2024-01-30T08:41:38;51.40;2227.20
55026;DHT22;40925;45.666;18.994;2024-01-30T08:44:07;51.30;2227.20
55026;DHT22;40925;45.666;18.994;2024-01-30T08:46:33;26.00;2201.60
55026;DHT22;40925;45.666;18.994;2024-01-30T08:49:02;25.90;2201.60
55026;DHT22;40925;45.666;18.994;2024-01-30T09:02:13;77.50;2227.20
55026;DHT22;40925;45.666;18.994;2024-01-30T09:07:09;102.90;2227.20
55026;DHT22;40925;45.666;18.994;2024-01-30T09:09:37;103.00;2227.20
55026;DHT22;40925;45.666;18.994;2024-01-30T09:12:05;128.80;2252.80
55026;DHT22;40925;45.666;18.994;2024-01-30T09:14:38;128.90;2252.80
55026;DHT22;40925;45.666;18.994;2024-01-30T09:17:04;153.60;2252.80
55026;DHT22;40925;45.666;18.994;2024-01-30T09:25:19;205.30;2252.80
55026;DHT22;40925;45.666;18.994;2024-01-30T09:27:46;231.00;2252.80
55026;DHT22;40925;45.666;18.994;2024-01-30T09:30:12;256.10;2252.80
55026;DHT22;40925;45.666;18.994;2024-01-30T09:32:40;205.70;2252.80
55026;DHT22;40925;45.666;18.994;2024-01-30T09:35:09;204.80;2252.80
55026;DHT22;40925;45.666;18.994;2024-01-30T09:37:35;179.70;2252.80
55026;DHT22;40925;45.666;18.994;2024-01-30T09:40:04;179.80;2252.80
55026;DHT22;40925;45.666;18.994;2024-01-30T09:42:35;179.80;2252.80
55026;DHT22;40925;45.666;18.994;2024-01-30T09:45:03;180.00;2252.80
55026;DHT22;40925;45.666;18.994;2024-01-30T09:47:42;180.10;2252.80
55026;DHT22;40925;45.666;18.994;2024-01-30T09:50:09;204.90;2252.80
55026;DHT22;40925;45.666;18.994;2024-01-30T09:52:36;205.40;2252.80
55026;DHT22;40925;45.666;18.994;2024-01-30T09:55:03;230.90;2252.80
55026;DHT22;40925;45.666;18.994;2024-01-30T09:57:31;231.30;2252.80
55026;DHT22;40925;45.666;18.994;2024-01-30T09:59:57;231.20;2252.80
55026;DHT22;40925;45.666;18.994;2024-01-30T10:02:26;256.00;2252.80
55026;DHT22;40925;45.666;18.994;2024-01-30T10:04:52;231.20;2252.80
55026;DHT22;40925;45.666;18.994;2024-01-30T10:10:40;281.80;2278.40
55026;DHT22;40925;45.666;18.994;2024-01-30T10:13:06;256.60;2252.80
55026;DHT22;40925;45.666;18.994;2024-01-30T10:15:33;256.10;2252.80
55026;DHT22;40925;45.666;18.994;2024-01-30T10:18:01;231.10;2252.80
55026;DHT22;40925;45.666;18.994;2024-01-30T10:20:29;231.00;2252.80
55026;DHT22;40925;45.666;18.994;2024-01-30T10:22:56;230.60;2252.80
55026;DHT22;40925;45.666;18.994;2024-01-30T10:25:22;230.90;2252.80
55026;DHT22;40925;45.666;18.994;2024-01-30T10:27:55;230.70;2252.80
55026;DHT22;40925;45.666;18.994;2024-01-30T10:30:23;230.80;2252.80
55026;DHT22;40925;45.666;18.994;2024-01-30T10:32:49;230.60;2252.80
55026;DHT22;40925;45.666;18.994;2024-01-30T10:35:15;230.80;2252.80
55026;DHT22;40925;45.666;18.994;2024-01-30T10:41:33;230.70;2252.80
55026;DHT22;40925;45.666;18.994;2024-01-30T10:44:11;231.00;2252.80
55026;DHT22;40925;45.666;18.994;2024-01-30T10:46:42;256.00;2252.80
55026;DHT22;40925;45.666;18.994;2024-01-30T10:49:12;256.30;2252.80
55026;DHT22;40925;45.666;18.994;2024-01-30T10:51:39;256.60;2252.80
55026;DHT22;40925;45.666;18.994;2024-01-30T10:54:06;256.60;2252.80
55026;DHT22;40925;45.666;18.994;2024-01-30T10:56:34;256.00;2252.80
55026;DHT22;40925;45.666;18.994;2024-01-30T10:59:00;231.10;2252.80
55026;DHT22;40925;45.666;18.994;2024-01-30T11:01:28;230.80;2252.80
55026;DHT22;40925;45.666;18.994;2024-01-30T11:03:55;230.80;2252.80
55026;DHT22;40925;45.666;18.994;2024-01-30T11:06:25;231.20;2252.80
55026;DHT22;40925;45.666;18.994;2024-01-30T11:09:05;231.00;2252.80
55026;DHT22;40925;45.666;18.994;2024-01-30T11:11:52;230.90;2252.80
55026;DHT22;40925;45.666;18.994;2024-01-30T11:14:24;231.10;2252.80
55026;DHT22;40925;45.666;18.994;2024-01-30T11:16:53;256.10;2252.80
55026;DHT22;40925;45.666;18.994;2024-01-30T11:19:23;256.10;2252.80
55026;DHT22;40925;45.666;18.994;2024-01-30T11:21:58;256.30;2252.80
55026;DHT22;40925;45.666;18.994;2024-01-30T11:24:25;256.40;2252.80
55026;DHT22;40925;45.666;18.994;2024-01-30T11:26:58;256.40;2252.80
55026;DHT22;40925;45.666;18.994;2024-01-30T11:29:27;256.50;2252.80
55026;DHT22;40925;45.666;18.994;2024-01-30T11:31:54;256.50;2252.80
55026;DHT22;40925;45.666;18.994;2024-01-30T11:34:22;256.80;2252.80
55026;DHT22;40925;45.666;18.994;2024-01-30T11:36:52;256.30;2252.80
55026;DHT22;40925;45.666;18.994;2024-01-30T11:39:27;256.40;2252.80
55026;DHT22;40925;45.666;18.994;2024-01-30T11:41:55;256.40;2252.80
55026;DHT22;40925;45.666;18.994;2024-01-30T11:44:24;256.20;2252.80
55026;DHT22;40925;45.666;18.994;2024-01-30T11:46:51;231.20;2252.80
55026;DHT22;40925;45.666;18.994;2024-01-30T11:49:17;256.10;2252.80
55026;DHT22;40925;45.666;18.994;2024-01-30T11:51:48;256.50;2252.80
55026;DHT22;40925;45.666;18.994;2024-01-30T11:54:17;281.60;2278.40
55026;DHT22;40925;45.666;18.994;2024-01-30T11:56:43;282.00;2252.80
55026;DHT22;40925;45.666;18.994;2024-01-30T11:59:10;281.60;2227.20
55026;DHT22;40925;45.666;18.994;2024-01-30T12:01:36;256.90;2150.40
55026;DHT22;40925;45.666;18.994;2024-01-30T12:04:02;281.80;2201.60
55026;DHT22;40925;45.666;18.994;2024-01-30T12:06:28;282.00;2176.00
55026;DHT22;40925;45.666;18.994;2024-01-30T12:09:04;281.90;2124.80
55026;DHT22;40925;45.666;18.994;2024-01-30T12:11:29;256.90;2099.20
55026;DHT22;40925;45.666;18.994;2024-01-30T12:13:55;256.90;2124.80
55026;DHT22;40925;45.666;18.994;2024-01-30T12:16:21;281.80;2124.80
55026;DHT22;40925;45.666;18.994;2024-01-30T12:18:59;281.90;2073.60
55026;DHT22;40925;45.666;18.994;2024-01-30T12:21:26;282.00;2048.00
55026;DHT22;40925;45.666;18.994;2024-01-30T12:23:52;282.00;1996.80
55026;DHT22;40925;45.666;18.994;2024-01-30T12:26:17;256.90;2022.40
55026;DHT22;40925;45.666;18.994;2024-01-30T12:28:49;256.80;2048.00
55026;DHT22;40925;45.666;18.994;2024-01-30T12:31:16;281.80;2073.60
55026;DHT22;40925;45.666;18.994;2024-01-30T12:33:41;281.90;2022.40
55026;DHT22;40925;45.666;18.994;2024-01-30T12:36:08;281.80;2048.00
55026;DHT22;40925;45.666;18.994;2024-01-30T12:41:55;281.60;1996.80
55026;DHT22;40925;45.666;18.994;2024-01-30T12:44:21;256.60;2022.40
55026;DHT22;40925;45.666;18.994;2024-01-30T12:46:48;256.80;1945.60
55026;DHT22;40925;45.666;18.994;2024-01-30T12:49:14;256.30;1996.80
55026;DHT22;40925;45.666;18.994;2024-01-30T12:51:43;256.70;1971.20
55026;DHT22;40925;45.666;18.994;2024-01-30T12:54:09;256.30;1945.60
55026;DHT22;40925;45.666;18.994;2024-01-30T12:56:34;256.50;1945.60
55026;DHT22;40925;45.666;18.994;2024-01-30T12:59:00;256.30;1971.20
55026;DHT22;40925;45.666;18.994;2024-01-30T13:01:26;231.30;1945.60
55026;DHT22;40925;45.666;18.994;2024-01-30T13:03:52;231.10;1996.80
55026;DHT22;40925;45.666;18.994;2024-01-30T13:06:18;256.40;1971.20
55026;DHT22;40925;45.666;18.994;2024-01-30T13:08:44;256.40;2048.00
55026;DHT22;40925;45.666;18.994;2024-01-30T13:11:09;256.30;2048.00
55026;DHT22;40925;45.666;18.994;2024-01-30T13:13:35;256.40;2073.60
55026;DHT22;40925;45.666;18.994;2024-01-30T13:16:02;256.30;2048.00
55026;DHT22;40925;45.666;18.994;2024-01-30T13:18:28;256.20;2048.00
55026;DHT22;40925;45.666;18.994;2024-01-30T13:20:54;256.10;2048.00
55026;DHT22;40925;45.666;18.994;2024-01-30T13:26:45;256.30;1996.80
55026;DHT22;40925;45.666;18.994;2024-01-30T13:29:11;256.10;2022.40
55026;DHT22;40925;45.666;18.994;2024-01-30T13:31:37;256.40;1971.20
55026;DHT22;40925;45.666;18.994;2024-01-30T13:34:05;256.60;1971.20
55026;DHT22;40925;45.666;18.994;2024-01-30T13:36:32;256.50;1945.60
55026;DHT22;40925;45.666;18.994;2024-01-30T13:42:20;256.30;2022.40
55026;DHT22;40925;45.666;18.994;2024-01-30T13:44:46;256.40;1996.80
55026;DHT22;40925;45.666;18.994;2024-01-30T13:47:12;256.50;1996.80
55026;DHT22;40925;45.666;18.994;2024-01-30T13:49:38;256.40;2073.60
55026;DHT22;40925;45.666;18.994;2024-01-30T13:52:05;256.20;2048.00
55026;DHT22;40925;45.666;18.994;2024-01-30T13:58:32;256.50;2073.60
55026;DHT22;40925;45.666;18.994;2024-01-30T14:00:59;231.30;2048.00
55026;DHT22;40925;45.666;18.994;2024-01-30T14:03:25;231.30;2073.60
55026;DHT22;40925;45.666;18.994;2024-01-30T14:05:52;231.20;2099.20
55026;DHT22;40925;45.666;18.994;2024-01-30T14:08:18;231.00;2124.80
55026;DHT22;40925;45.666;18.994;2024-01-30T14:10:47;231.00;2124.80
55026;DHT22;40925;45.666;18.994;2024-01-30T14:13:13;230.80;2099.20
55026;DHT22;40925;45.666;18.994;2024-01-30T14:15:39;230.70;2176.00
55026;DHT22;40925;45.666;18.994;2024-01-30T14:18:05;230.50;2201.60
55026;DHT22;40925;45.666;18.994;2024-01-30T14:20:34;230.50;2176.00
55026;DHT22;40925;45.666;18.994;2024-01-30T14:23:00;230.60;2176.00
55026;DHT22;40925;45.666;18.994;2024-01-30T14:28:48;230.40;2176.00
55026;DHT22;40925;45.666;18.994;2024-01-30T14:31:15;230.50;2150.40
55026;DHT22;40925;45.666;18.994;2024-01-30T14:33:44;230.40;2176.00
55026;DHT22;40925;45.666;18.994;2024-01-30T14:36:10;230.40;2176.00
55026;DHT22;40925;45.666;18.994;2024-01-30T14:38:36;205.70;2201.60
55026;DHT22;40925;45.666;18.994;2024-01-30T14:44:24;205.50;2201.60
55026;DHT22;40925;45.666;18.994;2024-01-30T14:46:51;205.50;2252.80
55026;DHT22;40925;45.666;18.994;2024-01-30T14:49:17;205.40;2252.80
55026;DHT22;40925;45.666;18.994;2024-01-30T14:51:43;205.20;2252.80
55026;DHT22;40925;45.666;18.994;2024-01-30T14:54:10;205.20;2252.80
55026;DHT22;40925;45.666;18.994;2024-01-30T14:56:36;205.20;2252.80
55026;DHT22;40925;45.666;18.994;2024-01-30T14:59:02;205.20;2252.80
55026;DHT22;40925;45.666;18.994;2024-01-30T15:01:28;205.10;2252.80
55026;DHT22;40925;45.666;18.994;2024-01-30T15:03:54;204.90;2252.80
55026;DHT22;40925;45.666;18.994;2024-01-30T15:06:21;180.10;2252.80
55026;DHT22;40925;45.666;18.994;2024-01-30T15:08:50;179.90;2252.80
55026;DHT22;40925;45.666;18.994;2024-01-30T15:14:38;179.40;2252.80
55026;DHT22;40925;45.666;18.994;2024-01-30T15:17:04;179.20;2252.80
55026;DHT22;40925;45.666;18.994;2024-01-30T15:19:30;154.50;2252.80
55026;DHT22;40925;45.666;18.994;2024-01-30T15:21:56;154.40;2252.80
55026;DHT22;40925;45.666;18.994;2024-01-30T15:24:26;154.20;2252.80
55026;DHT22;40925;45.666;18.994;2024-01-30T15:26:52;154.10;2252.80
55026;DHT22;40925;45.666;18.994;2024-01-30T15:29:18;154.00;2252.80
55026;DHT22;40925;45.666;18.994;2024-01-30T15:31:46;153.90;2252.80
55026;DHT22;40925;45.666;18.994;2024-01-30T15:34:13;153.80;2252.80
55026;DHT22;40925;45.666;18.994;2024-01-30T15:36:39;153.70;2252.80
55026;DHT22;40925;45.666;18.994;2024-01-30T15:39:05;153.70;2252.80
55026;DHT22;40925;45.666;18.994;2024-01-30T15:44:53;128.90;2252.80
55026;DHT22;40925;45.666;18.994;2024-01-30T15:47:19;128.70;2252.80
55026;DHT22;40925;45.666;18.994;2024-01-30T15:49:45;128.60;2252.80
55026;DHT22;40925;45.666;18.994;2024-01-30T15:52:11;128.50;2252.80
55026;DHT22;40925;45.666;18.994;2024-01-30T15:54:40;128.40;2252.80
55026;DHT22;40925;45.666;18.994;2024-01-30T15:57:06;128.40;2252.80
55026;DHT22;40925;45.666;18.994;2024-01-30T15:59:36;128.40;2252.80
55026;DHT22;40925;45.666;18.994;2024-01-30T16:02:03;128.10;2252.80
55026;DHT22;40925;45.666;18.994;2024-01-30T16:04:29;128.00;2252.80
55026;DHT22;40925;45.666;18.994;2024-01-30T16:06:55;103.30;2227.20
55026;DHT22;40925;45.666;18.994;2024-01-30T16:09:24;103.30;2227.20
55026;DHT22;40925;45.666;18.994;2024-01-30T16:15:13;103.10;2227.20
55026;DHT22;40925;45.666;18.994;2024-01-30T16:17:40;103.00;2227.20
55026;DHT22;40925;45.666;18.994;2024-01-30T16:20:08;103.00;2227.20
55026;DHT22;40925;45.666;18.994;2024-01-30T16:22:34;102.90;2227.20
55026;DHT22;40925;45.666;18.994;2024-01-30T16:25:02;102.90;2227.20
55026;DHT22;40925;45.666;18.994;2024-01-30T16:27:30;102.90;2227.20
55026;DHT22;40925;45.666;18.994;2024-01-30T16:29:56;102.90;2227.20
55026;DHT22;40925;45.666;18.994;2024-01-30T16:32:22;102.90;2227.20
55026;DHT22;40925;45.666;18.994;2024-01-30T16:34:48;102.90;2227.20
55026;DHT22;40925;45.666;18.994;2024-01-30T16:37:14;102.80;2227.20
55026;DHT22;40925;45.666;18.994;2024-01-30T16:39:41;102.70;2227.20
55026;DHT22;40925;45.666;18.994;2024-01-30T16:45:30;102.60;2227.20
55026;DHT22;40925;45.666;18.994;2024-01-30T16:47:59;102.60;2227.20
55026;DHT22;40925;45.666;18.994;2024-01-30T16:50:26;102.50;2227.20
55026;DHT22;40925;45.666;18.994;2024-01-30T16:52:52;102.60;2227.20